Time;durP1;ratioP1;P1;durP2;ratioP2;P2;SDS_P1;SDS_P2;PMS_P1;PMS_P2;Temp;Humidity;BMP_temperature;BMP_pressure;BME280_temperature;BME280_humidity;BME280_pressure;Samples;Min_cycle;Max_cycle;Signal;HPM_P1;HPM_P2
2022/08/28 00:00:23;;;;;;;26.67;25.20;;;;;;;;;;5036321;28;20029;-66
2022/08/28 00:02:49;;;;;;;31.83;30.13;;;;;;;;;;5037465;28;20347;-66
2022/08/28 00:05:17;;;;;;;29.30;27.73;;;;;;;;;;5035359;28;20063;-65
2022/08/28 00:07:43;;;;;;;34.42;32.63;;;;;;;;;;5039751;28;20424;-66
2022/08/28 00:10:11;;;;;;;33.50;31.70;;;;;;;;;;5034990;28;20032;-66
2022/08/28 00:12:37;;;;;;;29.35;27.67;;;;;;;;;;5039416;28;20029;-66
2022/08/28 00:15:08;;;;;;;30.48;28.65;;;;;;;;;;5035698;28;20029;-66
2022/08/28 00:17:34;;;;;;;28.23;26.67;;;;;;;;;;5032575;28;20049;-65
2022/08/28 00:19:59;;;;;;;36.70;33.28;;;;;;;;;;5034663;28;20068;-66
2022/08/28 00:22:24;;;;;;;32.83;31.10;;;;;;;;;;5037054;28;20341;-65
2022/08/28 00:24:50;;;;;;;32.47;30.70;;;;;;;;;;5032640;28;20033;-66
2022/08/28 00:29:59;;;;;;;30.00;28.42;;;;;;;;;;5033008;28;20057;-66
2022/08/28 00:32:25;;;;;;;33.97;32.17;;;;;;;;;;5035712;28;20052;-65
2022/08/28 00:34:51;;;;;;;32.97;31.23;;;;;;;;;;5037596;28;20468;-64
2022/08/28 00:37:17;;;;;;;40.92;38.80;;;;;;;;;;5034550;28;20044;-63
2022/08/28 00:39:42;;;;;;;44.10;41.83;;;;;;;;;;5035091;28;20035;-63
2022/08/28 00:42:09;;;;;;;45.28;42.88;;;;;;;;;;5034493;28;20328;-63
2022/08/28 00:44:35;;;;;;;45.03;42.70;;;;;;;;;;5032588;28;20057;-63
2022/08/28 00:47:01;;;;;;;42.70;40.47;;;;;;;;;;5034620;28;20508;-64
2022/08/28 00:49:32;;;;;;;50.08;47.50;;;;;;;;;;5033702;28;20040;-64
2022/08/28 00:52:07;;;;;;;40.78;38.55;;;;;;;;;;5035201;28;20490;-64
2022/08/28 00:54:50;;;;;;;37.25;35.33;;;;;;;;;;5034208;28;20149;-64
2022/08/28 00:57:26;;;;;;;34.25;32.47;;;;;;;;;;5036913;28;20057;-65
2022/08/28 00:59:52;;;;;;;44.95;42.65;;;;;;;;;;5032859;28;20656;-64
2022/08/28 01:02:18;;;;;;;39.58;37.50;;;;;;;;;;5036254;28;20074;-65
2022/08/28 01:04:44;;;;;;;48.35;45.80;;;;;;;;;;5035915;28;20432;-65
2022/08/28 01:07:13;;;;;;;42.65;40.47;;;;;;;;;;5035334;28;20033;-64
2022/08/28 01:09:43;;;;;;;40.83;38.70;;;;;;;;;;5035089;28;20029;-66
2022/08/28 01:12:17;;;;;;;41.30;39.15;;;;;;;;;;5034399;28;20083;-65
2022/08/28 01:14:46;;;;;;;35.70;33.83;;;;;;;;;;5034614;28;20037;-65
2022/08/28 01:17:14;;;;;;;47.97;45.43;;;;;;;;;;5034203;28;20039;-65
2022/08/28 01:19:51;;;;;;;48.33;45.83;;;;;;;;;;5033871;28;20343;-64
2022/08/28 01:22:44;;;;;;;48.10;45.53;;;;;;;;;;5040192;28;20025;-65
2022/08/28 01:25:15;;;;;;;46.70;44.30;;;;;;;;;;5035165;28;20178;-65
2022/08/28 01:27:40;;;;;;;44.85;42.53;;;;;;;;;;5033129;28;20124;-65
2022/08/28 01:30:11;;;;;;;47.47;44.95;;;;;;;;;;5035272;28;20124;-64
2022/08/28 01:32:41;;;;;;;40.67;38.55;;;;;;;;;;5034717;28;20044;-65
2022/08/28 01:35:11;;;;;;;45.75;42.95;;;;;;;;;;5035551;28;20025;-62
2022/08/28 01:37:37;;;;;;;43.58;41.33;;;;;;;;;;5039080;28;20243;-64
2022/08/28 01:40:05;;;;;;;43.67;41.40;;;;;;;;;;5034045;28;20131;-65
2022/08/28 01:42:38;;;;;;;41.58;39.40;;;;;;;;;;5036174;28;20036;-66
2022/08/28 01:45:06;;;;;;;42.13;39.90;;;;;;;;;;5037664;28;20029;-65
2022/08/28 01:47:31;;;;;;;36.17;34.22;;;;;;;;;;5039020;28;20587;-65
2022/08/28 01:49:56;;;;;;;38.75;36.72;;;;;;;;;;5038156;28;20116;-63
2022/08/28 01:52:22;;;;;;;31.48;29.73;;;;;;;;;;5040268;28;20025;-65
2022/08/28 01:54:47;;;;;;;40.00;37.92;;;;;;;;;;5039886;28;20037;-64
2022/08/28 01:57:13;;;;;;;46.33;43.90;;;;;;;;;;5038363;28;20051;-65
2022/08/28 01:59:38;;;;;;;37.20;35.28;;;;;;;;;;5041637;28;20169;-64
2022/08/28 02:02:04;;;;;;;38.15;36.17;;;;;;;;;;5040630;28;20033;-63
2022/08/28 02:04:29;;;;;;;39.63;37.58;;;;;;;;;;5038840;28;20045;-64
2022/08/28 02:06:55;;;;;;;41.53;39.38;;;;;;;;;;5037595;28;20067;-63
2022/08/28 02:09:20;;;;;;;38.80;36.72;;;;;;;;;;5040508;28;20039;-64
2022/08/28 02:11:45;;;;;;;36.67;34.72;;;;;;;;;;5039709;28;20139;-64
2022/08/28 02:14:11;;;;;;;35.45;33.63;;;;;;;;;;5041098;28;20514;-65
2022/08/28 02:16:36;;;;;;;41.00;38.88;;;;;;;;;;5041435;28;20510;-65
2022/08/28 02:19:02;;;;;;;39.25;37.15;;;;;;;;;;5040880;28;20033;-64
2022/08/28 02:21:27;;;;;;;45.05;42.75;;;;;;;;;;5039734;28;20124;-65
2022/08/28 02:23:53;;;;;;;36.95;35.03;;;;;;;;;;5035461;28;20056;-65
2022/08/28 02:26:19;;;;;;;44.45;42.15;;;;;;;;;;5037864;28;20108;-65
2022/08/28 02:28:45;;;;;;;39.08;36.95;;;;;;;;;;5036130;28;20043;-64
2022/08/28 02:31:11;;;;;;;43.08;40.85;;;;;;;;;;5034466;28;20021;-64
2022/08/28 02:33:40;;;;;;;45.45;43.10;;;;;;;;;;5036048;28;20052;-64
2022/08/28 02:36:08;;;;;;;45.60;43.25;;;;;;;;;;5039384;28;20172;-64
2022/08/28 02:38:35;;;;;;;47.92;45.40;;;;;;;;;;5038882;28;20112;-65
2022/08/28 02:41:00;;;;;;;44.45;42.15;;;;;;;;;;5035458;28;20029;-64
2022/08/28 02:43:25;;;;;;;38.83;36.83;;;;;;;;;;5038279;28;20110;-65
2022/08/28 02:45:51;;;;;;;41.88;39.67;;;;;;;;;;5038117;28;20091;-64
2022/08/28 02:48:16;;;;;;;37.50;35.42;;;;;;;;;;5038948;28;20115;-64
2022/08/28 02:50:42;;;;;;;43.53;41.25;;;;;;;;;;5035689;28;20044;-64
2022/08/28 02:53:10;;;;;;;37.35;35.40;;;;;;;;;;5035568;28;20045;-65
2022/08/28 02:55:36;;;;;;;35.92;34.08;;;;;;;;;;5038237;28;20102;-64
2022/08/28 02:58:02;;;;;;;38.53;36.45;;;;;;;;;;5038528;28;20064;-64
2022/08/28 03:00:27;;;;;;;36.13;34.25;;;;;;;;;;5033915;28;20037;-65
2022/08/28 03:02:53;;;;;;;36.97;35.05;;;;;;;;;;5039412;28;20516;-64
2022/08/28 03:05:22;;;;;;;36.40;34.47;;;;;;;;;;5037370;28;20033;-64
2022/08/28 03:07:48;;;;;;;36.15;34.22;;;;;;;;;;5037112;28;20441;-65
2022/08/28 03:10:14;;;;;;;34.85;33.05;;;;;;;;;;5041173;28;20032;-65
2022/08/28 03:12:40;;;;;;;32.65;30.95;;;;;;;;;;5036785;28;20091;-65
2022/08/28 03:15:06;;;;;;;36.38;34.47;;;;;;;;;;5042134;28;20487;-64
2022/08/28 03:17:32;;;;;;;39.40;37.28;;;;;;;;;;5039723;28;20048;-64
2022/08/28 03:19:58;;;;;;;42.10;39.95;;;;;;;;;;5040369;28;20051;-64
2022/08/28 03:25:08;;;;;;;48.45;45.95;;;;;;;;;;5037133;28;20055;-64
2022/08/28 03:27:33;;;;;;;39.60;37.50;;;;;;;;;;5033931;28;20033;-64
2022/08/28 03:29:58;;;;;;;41.85;39.67;;;;;;;;;;5032215;28;20371;-65
2022/08/28 03:32:25;;;;;;;35.10;33.25;;;;;;;;;;5035764;28;20510;-64
2022/08/28 03:34:52;;;;;;;42.83;40.60;;;;;;;;;;5036342;28;20116;-64
2022/08/28 03:37:18;;;;;;;41.25;39.10;;;;;;;;;;5038231;28;20030;-64
2022/08/28 03:39:44;;;;;;;44.17;41.88;;;;;;;;;;5039218;28;20275;-64
2022/08/28 03:42:09;;;;;;;41.97;39.80;;;;;;;;;;5038057;28;20028;-64
2022/08/28 03:44:37;;;;;;;48.13;45.65;;;;;;;;;;5036874;28;20036;-64
2022/08/28 03:47:03;;;;;;;47.17;44.75;;;;;;;;;;5038770;28;20069;-64
2022/08/28 03:49:29;;;;;;;42.15;39.88;;;;;;;;;;5037841;28;20047;-64
2022/08/28 03:51:55;;;;;;;54.00;51.20;;;;;;;;;;5033585;28;20044;-64
2022/08/28 03:54:21;;;;;;;44.38;42.10;;;;;;;;;;5036875;28;20417;-64
2022/08/28 03:56:47;;;;;;;44.25;41.95;;;;;;;;;;5038046;28;20124;-64
2022/08/28 03:59:12;;;;;;;44.75;42.47;;;;;;;;;;5040832;28;20100;-64
2022/08/28 04:01:38;;;;;;;43.30;41.05;;;;;;;;;;5035508;28;20382;-64
2022/08/28 04:04:03;;;;;;;40.38;38.28;;;;;;;;;;5034549;28;20734;-64
2022/08/28 04:06:29;;;;;;;46.38;44.00;;;;;;;;;;5043238;28;20112;-64
2022/08/28 04:08:54;;;;;;;38.95;36.92;;;;;;;;;;5038507;28;20045;-63
2022/08/28 04:11:20;;;;;;;42.58;40.40;;;;;;;;;;5036847;28;20100;-63
2022/08/28 04:13:45;;;;;;;47.25;44.83;;;;;;;;;;5034226;28;20095;-63
2022/08/28 04:16:13;;;;;;;38.95;36.92;;;;;;;;;;5032858;28;20660;-64
2022/08/28 04:18:40;;;;;;;48.80;46.05;;;;;;;;;;5033941;28;20116;-64
2022/08/28 04:21:09;;;;;;;41.45;39.30;;;;;;;;;;5032865;28;20030;-64
2022/08/28 04:23:37;;;;;;;51.85;49.15;;;;;;;;;;5042376;28;20880;-64
2022/08/28 04:26:06;;;;;;;49.10;46.60;;;;;;;;;;5036038;28;20102;-63
2022/08/28 04:28:32;;;;;;;44.03;41.73;;;;;;;;;;5032889;28;20523;-64
2022/08/28 04:30:57;;;;;;;50.08;47.40;;;;;;;;;;5037705;28;20128;-63
2022/08/28 04:33:25;;;;;;;42.42;40.25;;;;;;;;;;5034921;28;20033;-64
2022/08/28 04:35:50;;;;;;;42.95;40.63;;;;;;;;;;5035790;28;20029;-63
2022/08/28 04:38:16;;;;;;;45.55;43.17;;;;;;;;;;5038999;28;20100;-63
2022/08/28 04:40:42;;;;;;;45.20;42.88;;;;;;;;;;5036626;28;20403;-64
2022/08/28 04:43:07;;;;;;;40.80;38.70;;;;;;;;;;5037100;28;20347;-63
2022/08/28 04:45:38;;;;;;;44.88;42.42;;;;;;;;;;5032377;28;20340;-63
2022/08/28 04:48:04;;;;;;;;;;;;;;;;;;5036384;28;20719;-63
2022/08/28 04:50:29;;;;;;;39.58;37.55;;;;;;;;;;5032072;28;19916;-63
2022/08/28 04:52:55;;;;;;;49.30;46.78;;;;;;;;;;5033556;28;20029;-63
2022/08/28 04:55:21;;;;;;;41.33;38.90;;;;;;;;;;5032014;28;20025;-63
2022/08/28 04:57:46;;;;;;;43.70;41.45;;;;;;;;;;5035078;28;20211;-63
2022/08/28 05:00:12;;;;;;;42.75;40.55;;;;;;;;;;5025827;28;20040;-63
2022/08/28 05:02:37;;;;;;;43.10;40.90;;;;;;;;;;5034617;28;20036;-63
2022/08/28 05:05:03;;;;;;;44.17;41.90;;;;;;;;;;5037115;28;20549;-63
2022/08/28 05:07:29;;;;;;;43.03;40.83;;;;;;;;;;5035017;28;20493;-63
2022/08/28 05:09:54;;;;;;;40.42;38.33;;;;;;;;;;5037284;28;20592;-63
2022/08/28 05:12:20;;;;;;;42.15;39.20;;;;;;;;;;5034798;28;20033;-63
2022/08/28 05:14:47;;;;;;;48.70;46.20;;;;;;;;;;5035944;28;20044;-63
2022/08/28 05:17:13;;;;;;;46.95;44.50;;;;;;;;;;5032278;28;20402;-63
2022/08/28 05:19:39;;;;;;;46.63;44.20;;;;;;;;;;5035308;28;20029;-63
2022/08/28 05:22:04;;;;;;;38.33;36.22;;;;;;;;;;5032608;28;20036;-63
2022/08/28 05:24:30;;;;;;;42.83;40.60;;;;;;;;;;5032364;28;20417;-63
2022/08/28 05:26:56;;;;;;;43.47;41.25;;;;;;;;;;5036632;28;20040;-62
2022/08/28 05:29:21;;;;;;;38.08;35.88;;;;;;;;;;5031889;28;20036;-63
2022/08/28 05:31:47;;;;;;;41.67;39.53;;;;;;;;;;5036410;28;20090;-63
2022/08/28 05:34:14;;;;;;;39.63;37.22;;;;;;;;;;5036865;28;20419;-62
2022/08/28 05:36:40;;;;;;;39.13;37.08;;;;;;;;;;5033471;28;20030;-63
2022/08/28 05:39:08;;;;;;;43.58;41.33;;;;;;;;;;5032969;28;20056;-62
2022/08/28 05:41:33;;;;;;;38.90;36.85;;;;;;;;;;5034249;28;20035;-62
2022/08/28 05:44:01;;;;;;;39.92;37.83;;;;;;;;;;5035704;28;20112;-62
2022/08/28 05:46:27;;;;;;;38.55;36.53;;;;;;;;;;5033996;28;20098;-62
2022/08/28 05:48:53;;;;;;;42.65;40.45;;;;;;;;;;5034565;28;20434;-62
2022/08/28 05:51:20;;;;;;;41.25;38.85;;;;;;;;;;5033385;28;20143;-63
2022/08/28 05:53:46;;;;;;;43.20;40.95;;;;;;;;;;5033605;28;20044;-62
2022/08/28 05:56:14;;;;;;;43.55;41.30;;;;;;;;;;5033758;28;20043;-62
2022/08/28 05:58:41;;;;;;;38.63;36.63;;;;;;;;;;5035985;28;20934;-62
2022/08/28 06:01:23;;;;;;;45.35;43.03;;;;;;;;;;5032637;28;20082;-62
2022/08/28 06:03:58;;;;;;;39.92;37.85;;;;;;;;;;5031935;28;20375;-61
2022/08/28 06:06:25;;;;;;;42.75;40.55;;;;;;;;;;5035821;28;20041;-62
2022/08/28 06:08:56;;;;;;;40.15;38.08;;;;;;;;;;5033451;28;20032;-61
2022/08/28 06:11:22;;;;;;;33.90;32.10;;;;;;;;;;5033339;28;20060;-62
2022/08/28 06:13:47;;;;;;;32.33;30.60;;;;;;;;;;5034128;28;20470;-62
2022/08/28 06:16:13;;;;;;;35.55;33.72;;;;;;;;;;5034663;28;20588;-61
2022/08/28 06:18:39;;;;;;;26.27;24.88;;;;;;;;;;5033266;28;20044;-61
2022/08/28 06:21:05;;;;;;;33.13;31.40;;;;;;;;;;5034812;28;20034;-61
2022/08/28 06:23:30;;;;;;;35.60;33.72;;;;;;;;;;5031770;28;20037;-61
2022/08/28 06:25:56;;;;;;;26.73;25.30;;;;;;;;;;5031765;28;20025;-61
2022/08/28 06:28:24;;;;;;;29.63;28.02;;;;;;;;;;5032866;28;20033;-64
2022/08/28 06:30:52;;;;;;;29.73;28.17;;;;;;;;;;5038595;28;20036;-65
2022/08/28 06:33:20;;;;;;;25.98;24.58;;;;;;;;;;5039232;28;20043;-64
2022/08/28 06:35:49;;;;;;;31.45;29.80;;;;;;;;;;5037567;28;20071;-64
2022/08/28 06:38:16;;;;;;;22.63;21.40;;;;;;;;;;5038038;28;20060;-65
2022/08/28 06:40:45;;;;;;;30.73;29.13;;;;;;;;;;5038887;28;20056;-64
2022/08/28 06:43:12;;;;;;;33.90;32.13;;;;;;;;;;5041202;28;20037;-64
2022/08/28 06:45:43;;;;;;;30.45;28.88;;;;;;;;;;5037019;28;20041;-63
2022/08/28 06:48:10;;;;;;;16.05;15.15;;;;;;;;;;5039559;28;20132;-64
2022/08/28 06:50:41;;;;;;;20.25;19.15;;;;;;;;;;5034181;28;20025;-65
2022/08/28 06:53:08;;;;;;;19.23;18.17;;;;;;;;;;5044642;28;20029;-64
2022/08/28 06:55:35;;;;;;;18.55;17.55;;;;;;;;;;5035737;28;20045;-64
2022/08/28 06:58:01;;;;;;;23.52;22.23;;;;;;;;;;5038643;28;20099;-64
2022/08/28 07:00:26;;;;;;;28.05;26.55;;;;;;;;;;5038858;28;20064;-64
2022/08/28 07:02:51;;;;;;;18.92;17.88;;;;;;;;;;5037737;28;20025;-64
2022/08/28 07:05:17;;;;;;;23.83;22.55;;;;;;;;;;5038463;28;20064;-63
2022/08/28 07:07:42;;;;;;;20.33;19.20;;;;;;;;;;5039059;28;20033;-65
2022/08/28 07:10:08;;;;;;;22.95;20.65;;;;;;;;;;5037750;28;20733;-66
2022/08/28 07:12:33;;;;;;;21.65;20.45;;;;;;;;;;5037779;28;20714;-65
2022/08/28 07:14:58;;;;;;;18.45;17.40;;;;;;;;;;5036099;28;20036;-65
2022/08/28 07:17:24;;;;;;;36.63;34.72;;;;;;;;;;5036970;28;20029;-63
2022/08/28 07:19:50;;;;;;;27.38;25.63;;;;;;;;;;5037732;28;20041;-63
2022/08/28 07:22:15;;;;;;;31.65;30.02;;;;;;;;;;5039752;28;20043;-64
2022/08/28 07:24:41;;;;;;;31.25;29.63;;;;;;;;;;5033960;28;20037;-63
2022/08/28 07:27:07;;;;;;;38.60;36.55;;;;;;;;;;5037391;28;20246;-64
2022/08/28 07:29:33;;;;;;;30.13;28.52;;;;;;;;;;5036332;28;20094;-64
2022/08/28 07:31:58;;;;;;;28.13;26.63;;;;;;;;;;5042418;28;20037;-64
2022/08/28 07:34:23;;;;;;;30.88;29.27;;;;;;;;;;5035306;28;20026;-64
2022/08/28 07:36:52;;;;;;;26.45;25.05;;;;;;;;;;5036515;28;20382;-64
2022/08/28 07:39:18;;;;;;;28.75;27.25;;;;;;;;;;5034549;28;20037;-62
2022/08/28 07:41:45;;;;;;;29.80;28.20;;;;;;;;;;5042660;28;20124;-64
2022/08/28 07:47:01;;;;;;;28.90;27.40;;;;;;;;;;5030455;28;20029;-64
2022/08/28 07:49:26;;;;;;;30.73;28.90;;;;;;;;;;5033235;28;20036;-63
2022/08/28 07:51:51;;;;;;;27.85;26.38;;;;;;;;;;5038892;28;20045;-63
2022/08/28 07:54:17;;;;;;;30.42;28.83;;;;;;;;;;5040753;28;20029;-63
2022/08/28 07:56:42;;;;;;;24.90;23.50;;;;;;;;;;5034963;28;20409;-63
2022/08/28 07:59:10;;;;;;;29.13;27.55;;;;;;;;;;5036014;28;20037;-63
2022/08/28 08:01:39;;;;;;;19.33;18.27;;;;;;;;;;5037708;28;20360;-63
2022/08/28 08:04:06;;;;;;;17.42;16.42;;;;;;;;;;5034747;28;20110;-64
2022/08/28 08:06:33;;;;;;;17.67;16.67;;;;;;;;;;5035377;28;20542;-62
2022/08/28 08:08:58;;;;;;;23.98;22.67;;;;;;;;;;5039027;28;20122;-62
2022/08/28 08:11:25;;;;;;;15.73;14.63;;;;;;;;;;5038953;28;20618;-62
2022/08/28 08:13:51;;;;;;;13.20;12.40;;;;;;;;;;5038494;28;20039;-62
2022/08/28 08:16:18;;;;;;;21.83;20.63;;;;;;;;;;5038156;28;20028;-63
2022/08/28 08:18:46;;;;;;;26.55;25.15;;;;;;;;;;5035906;28;20040;-64
2022/08/28 08:21:14;;;;;;;19.17;18.15;;;;;;;;;;5036915;28;20028;-63
2022/08/28 08:23:40;;;;;;;17.52;16.50;;;;;;;;;;5032738;28;20348;-63
2022/08/28 08:26:08;;;;;;;18.38;17.30;;;;;;;;;;5036458;28;20055;-62
2022/08/28 08:28:37;;;;;;;16.00;14.88;;;;;;;;;;5036374;28;20465;-62
2022/08/28 08:31:14;;;;;;;15.90;15.00;;;;;;;;;;5034912;28;20029;-62
2022/08/28 08:33:42;;;;;;;21.40;20.20;;;;;;;;;;5039105;28;20059;-62
2022/08/28 08:36:10;;;;;;;22.80;21.55;;;;;;;;;;5037997;28;20033;-62
2022/08/28 08:38:36;;;;;;;15.15;14.25;;;;;;;;;;5034472;28;20591;-62
2022/08/28 08:41:18;;;;;;;28.45;22.52;;;;;;;;;;5035569;28;20024;-62
2022/08/28 08:43:59;;;;;;;27.52;26.00;;;;;;;;;;5037321;28;20033;-62
2022/08/28 08:46:36;;;;;;;17.08;16.08;;;;;;;;;;5033498;28;20558;-62
2022/08/28 08:49:04;;;;;;;27.40;25.80;;;;;;;;;;5035303;28;20067;-62
2022/08/28 08:51:43;;;;;;;15.63;14.73;;;;;;;;;;5036895;28;20065;-62
2022/08/28 08:54:14;;;;;;;22.27;21.08;;;;;;;;;;5033966;28;20069;-62
2022/08/28 08:56:42;;;;;;;16.98;15.85;;;;;;;;;;5039257;28;20045;-62
2022/08/28 08:59:15;;;;;;;25.70;24.30;;;;;;;;;;5033424;28;20467;-62
2022/08/28 09:01:49;;;;;;;16.08;15.18;;;;;;;;;;5033511;28;20123;-62
2022/08/28 09:04:33;;;;;;;10.80;10.10;;;;;;;;;;5037255;28;20032;-62
2022/08/28 09:07:22;;;;;;;11.43;10.73;;;;;;;;;;5037687;28;20025;-62
2022/08/28 09:09:52;;;;;;;10.20;9.60;;;;;;;;;;5039282;28;20029;-61
2022/08/28 09:12:19;;;;;;;9.55;8.95;;;;;;;;;;5037618;28;20025;-62
2022/08/28 09:15:04;;;;;;;12.65;11.85;;;;;;;;;;5034047;28;20033;-63
2022/08/28 09:17:54;;;;;;;13.65;12.85;;;;;;;;;;5033330;28;20056;-62
2022/08/28 09:20:24;;;;;;;14.25;13.45;;;;;;;;;;5026250;28;20047;-62
2022/08/28 09:22:49;;;;;;;14.88;14.07;;;;;;;;;;5033807;28;20154;-62
2022/08/28 09:25:43;;;;;;;14.73;13.82;;;;;;;;;;5043142;28;20041;-60
2022/08/28 09:28:13;;;;;;;13.55;12.75;;;;;;;;;;5033873;28;20101;-61
2022/08/28 09:30:40;;;;;;;8.23;7.65;;;;;;;;;;5033542;28;20040;-61
2022/08/28 09:33:06;;;;;;;8.05;7.53;;;;;;;;;;5034706;28;20056;-61
2022/08/28 09:35:34;;;;;;;11.05;10.35;;;;;;;;;;5032980;28;20604;-61
2022/08/28 09:38:26;;;;;;;12.82;12.05;;;;;;;;;;5036833;28;20099;-61
2022/08/28 09:43:53;;;;;;;9.38;8.77;;;;;;;;;;5041218;28;20116;-62
2022/08/28 09:46:28;;;;;;;10.02;9.43;;;;;;;;;;5024628;28;20116;-61
2022/08/28 09:49:08;;;;;;;7.97;7.45;;;;;;;;;;5030599;28;20072;-61
2022/08/28 09:51:37;;;;;;;7.57;7.07;;;;;;;;;;5034399;28;20392;-61
2022/08/28 09:54:15;;;;;;;8.20;7.60;;;;;;;;;;5031968;28;20072;-61
2022/08/28 09:56:43;;;;;;;11.65;10.95;;;;;;;;;;5035345;28;20032;-62
2022/08/28 09:59:17;;;;;;;12.60;11.88;;;;;;;;;;5035779;28;20470;-61
2022/08/28 10:01:47;;;;;;;14.68;13.85;;;;;;;;;;5036195;28;20022;-61
2022/08/28 10:04:14;;;;;;;12.73;11.93;;;;;;;;;;5044071;28;20029;-60
2022/08/28 10:06:50;;;;;;;14.60;13.70;;;;;;;;;;5038870;28;20033;-61
2022/08/28 10:09:30;;;;;;;12.63;11.93;;;;;;;;;;5036405;28;20591;-60
2022/08/28 10:12:18;;;;;;;17.63;16.63;;;;;;;;;;5039564;28;20474;-60
2022/08/28 10:14:56;;;;;;;13.93;13.13;;;;;;;;;;5040442;28;20033;-61
2022/08/28 10:17:47;;;;;;;13.98;13.18;;;;;;;;;;5039478;28;20029;-62
2022/08/28 10:20:21;;;;;;;13.90;13.10;;;;;;;;;;5037526;28;20430;-61
2022/08/28 10:23:09;;;;;;;13.95;13.07;;;;;;;;;;5038628;28;20362;-61
2022/08/28 10:26:16;;;;;;;15.45;14.55;;;;;;;;;;5037466;28;20128;-63
2022/08/28 10:29:12;;;;;;;17.63;16.65;;;;;;;;;;5002471;28;20434;-63
2022/08/28 10:31:49;;;;;;;16.55;15.65;;;;;;;;;;5033494;28;20046;-62
2022/08/28 10:34:33;;;;;;;15.05;14.20;;;;;;;;;;5039379;28;20075;-62
2022/08/28 10:37:07;;;;;;;18.50;17.50;;;;;;;;;;5041083;28;20029;-61
2022/08/28 10:39:40;;;;;;;19.25;18.23;;;;;;;;;;5038117;28;20104;-61
2022/08/28 10:42:06;;;;;;;20.25;18.95;;;;;;;;;;5037149;28;20315;-62
2022/08/28 10:44:43;;;;;;;23.15;21.92;;;;;;;;;;5036381;28;20687;-62
2022/08/28 10:47:11;;;;;;;24.83;23.48;;;;;;;;;;5035735;28;20041;-60
2022/08/28 10:49:40;;;;;;;21.73;20.52;;;;;;;;;;5037923;28;20025;-61
2022/08/28 10:52:11;;;;;;;26.67;25.25;;;;;;;;;;5033761;28;20053;-62
2022/08/28 10:54:44;;;;;;;26.05;24.55;;;;;;;;;;5037778;28;20032;-62
2022/08/28 10:57:34;;;;;;;22.17;20.98;;;;;;;;;;5039845;28;20166;-61
2022/08/28 11:00:07;;;;;;;37.00;35.13;;;;;;;;;;5036964;28;20029;-61
2022/08/28 11:02:34;;;;;;;34.33;32.55;;;;;;;;;;5037713;28;20080;-61
2022/08/28 11:05:01;;;;;;;33.58;31.85;;;;;;;;;;5035289;28;20219;-61
2022/08/28 11:07:37;;;;;;;32.58;30.88;;;;;;;;;;5039811;28;20086;-62
2022/08/28 11:10:33;;;;;;;28.30;26.67;;;;;;;;;;5035829;28;20119;-61
2022/08/28 11:13:00;;;;;;;27.02;25.55;;;;;;;;;;5037533;28;20505;-62
2022/08/28 11:15:30;;;;;;;29.38;27.88;;;;;;;;;;5033640;28;20041;-63
2022/08/28 11:18:14;;;;;;;23.38;22.17;;;;;;;;;;5034539;28;20714;-61
2022/08/28 11:21:00;;;;;;;29.20;27.70;;;;;;;;;;5031767;28;20456;-61
2022/08/28 11:23:49;;;;;;;31.65;29.85;;;;;;;;;;5035238;28;20174;-60
2022/08/28 11:26:27;;;;;;;27.95;26.45;;;;;;;;;;5037277;28;20039;-63
2022/08/28 11:28:52;;;;;;;29.63;28.00;;;;;;;;;;5035778;28;20101;-62
2022/08/28 11:31:18;;;;;;;25.63;24.27;;;;;;;;;;5034500;28;20033;-61
2022/08/28 11:33:51;;;;;;;33.40;31.60;;;;;;;;;;5034660;28;20073;-61
2022/08/28 11:36:17;;;;;;;30.60;29.00;;;;;;;;;;5036479;28;20147;-61
2022/08/28 11:38:42;;;;;;;31.52;28.33;;;;;;;;;;5033461;28;20030;-62
2022/08/28 11:41:16;;;;;;;31.10;29.40;;;;;;;;;;5033423;28;20347;-61
2022/08/28 11:43:43;;;;;;;33.90;32.10;;;;;;;;;;5033266;28;20182;-61
2022/08/28 11:46:23;;;;;;;34.45;32.65;;;;;;;;;;5035889;28;20603;-61
2022/08/28 11:49:04;;;;;;;38.13;36.17;;;;;;;;;;5034751;28;20037;-62
2022/08/28 11:51:44;;;;;;;39.58;37.47;;;;;;;;;;5037445;28;20041;-63
2022/08/28 11:54:31;;;;;;;33.65;31.90;;;;;;;;;;5034700;28;20040;-62
2022/08/28 11:57:17;;;;;;;32.33;30.63;;;;;;;;;;5037599;28;20124;-62
2022/08/28 12:00:07;;;;;;;34.55;32.75;;;;;;;;;;5034542;28;20036;-63
2022/08/28 12:02:38;;;;;;;32.72;31.02;;;;;;;;;;5033903;28;20033;-63
2022/08/28 12:05:15;;;;;;;38.80;36.80;;;;;;;;;;5035641;28;20041;-63
2022/08/28 12:07:43;;;;;;;34.47;32.67;;;;;;;;;;5019794;28;21011;-62
2022/08/28 12:10:21;;;;;;;53.78;51.05;;;;;;;;;;5035950;28;20033;-61
2022/08/28 12:12:46;;;;;;;72.10;68.50;;;;;;;;;;5037807;28;20060;-63
2022/08/28 12:15:27;;;;;;;81.00;76.93;;;;;;;;;;5037391;28;20095;-62
2022/08/28 12:18:10;;;;;;;59.83;56.83;;;;;;;;;;5037318;28;20036;-62
2022/08/28 12:20:38;;;;;;;86.35;82.05;;;;;;;;;;5032470;28;20102;-62
2022/08/28 12:23:38;;;;;;;61.55;58.45;;;;;;;;;;5040582;28;20025;-64
2022/08/28 12:26:08;;;;;;;73.72;70.07;;;;;;;;;;5035657;28;20366;-63
2022/08/28 12:28:44;;;;;;;104.43;99.30;;;;;;;;;;5033022;28;20037;-62
2022/08/28 12:34:21;;;;;;;117.05;111.30;;;;;;;;;;5030377;28;20025;-61
2022/08/28 12:36:54;;;;;;;135.88;129.23;;;;;;;;;;5035490;28;20052;-62
2022/08/28 12:39:20;;;;;;;97.47;92.72;;;;;;;;;;5034465;28;20025;-62
2022/08/28 12:41:45;;;;;;;131.68;124.95;;;;;;;;;;5035994;28;20395;-62
2022/08/28 12:44:14;;;;;;;135.57;128.77;;;;;;;;;;5038419;28;20048;-61
2022/08/28 12:46:42;;;;;;;121.15;115.20;;;;;;;;;;5036443;28;20474;-61
2022/08/28 12:49:34;;;;;;;126.50;120.28;;;;;;;;;;5032854;28;20064;-62
2022/08/28 12:52:16;;;;;;;54.60;51.90;;;;;;;;;;5025308;28;20033;-64
2022/08/28 12:54:43;;;;;;;119.85;113.93;;;;;;;;;;5032427;28;20570;-63
2022/08/28 12:57:11;;;;;;;138.65;131.82;;;;;;;;;;5035219;28;20029;-63
2022/08/28 12:59:40;;;;;;;165.93;157.77;;;;;;;;;;5035678;28;20083;-62
2022/08/28 13:02:11;;;;;;;149.13;141.80;;;;;;;;;;5032276;28;20063;-62
2022/08/28 13:04:40;;;;;;;129.90;123.55;;;;;;;;;;5033593;28;20037;-62
2022/08/28 13:07:12;;;;;;;109.97;104.55;;;;;;;;;;5036072;28;20029;-63
2022/08/28 13:09:45;;;;;;;79.22;75.32;;;;;;;;;;5036223;28;20056;-63
2022/08/28 13:12:37;;;;;;;132.90;126.38;;;;;;;;;;5034037;28;20083;-64
2022/08/28 13:15:05;;;;;;;147.85;140.63;;;;;;;;;;5035575;28;20039;-62
2022/08/28 13:17:48;;;;;;;145.48;138.30;;;;;;;;;;5032048;28;20056;-63
2022/08/28 13:20:28;;;;;;;152.30;144.75;;;;;;;;;;5035540;28;20091;-62
2022/08/28 13:22:54;;;;;;;121.03;115.07;;;;;;;;;;5033561;28;20067;-62
2022/08/28 13:25:26;;;;;;;111.28;105.80;;;;;;;;;;5032777;28;20053;-63
2022/08/28 13:27:57;;;;;;;120.13;114.22;;;;;;;;;;5031627;28;20033;-63
2022/08/28 13:30:26;;;;;;;155.43;147.75;;;;;;;;;;5034557;28;20040;-61
2022/08/28 13:33:21;;;;;;;117.35;111.57;;;;;;;;;;5032209;28;20037;-61
2022/08/28 13:35:47;;;;;;;116.57;110.88;;;;;;;;;;5031312;28;20044;-61
2022/08/28 13:38:15;;;;;;;157.35;149.68;;;;;;;;;;5034160;28;20017;-61
2022/08/28 13:40:52;;;;;;;116.00;110.30;;;;;;;;;;5038988;28;20119;-61
2022/08/28 13:43:20;;;;;;;130.32;123.90;;;;;;;;;;5036825;28;20107;-61
2022/08/28 13:45:47;;;;;;;103.05;97.82;;;;;;;;;;5038463;28;20029;-61
2022/08/28 13:48:18;;;;;;;74.80;71.13;;;;;;;;;;5043216;28;20175;-61
2022/08/28 13:50:47;;;;;;;89.95;85.50;;;;;;;;;;5038549;28;20118;-61
2022/08/28 13:53:15;;;;;;;118.22;112.40;;;;;;;;;;5038338;28;20088;-61
2022/08/28 13:55:41;;;;;;;120.97;115.05;;;;;;;;;;5037045;28;20048;-61
2022/08/28 13:58:06;;;;;;;118.30;112.40;;;;;;;;;;5039153;28;20025;-62
2022/08/28 14:00:35;;;;;;;134.10;127.50;;;;;;;;;;5036033;28;20029;-61
2022/08/28 14:05:45;;;;;;;109.18;103.82;;;;;;;;;;5038717;28;20526;-61
2022/08/28 14:08:10;;;;;;;120.72;114.68;;;;;;;;;;5042324;28;20100;-62
2022/08/28 14:10:35;;;;;;;95.43;90.75;;;;;;;;;;5040582;28;20450;-62
2022/08/28 14:13:01;;;;;;;117.28;111.50;;;;;;;;;;5038140;28;20458;-61
2022/08/28 14:15:26;;;;;;;94.38;89.70;;;;;;;;;;5038959;28;20406;-62
2022/08/28 14:17:52;;;;;;;89.35;84.95;;;;;;;;;;5036558;28;20458;-62
2022/08/28 14:20:17;;;;;;;94.22;89.63;;;;;;;;;;5038065;28;20124;-62
2022/08/28 14:22:43;;;;;;;101.13;96.15;;;;;;;;;;5038425;28;20025;-62
2022/08/28 14:25:09;;;;;;;93.95;89.32;;;;;;;;;;5042597;28;20199;-62
2022/08/28 14:27:34;;;;;;;89.18;84.65;;;;;;;;;;5037468;28;20038;-62
2022/08/28 14:30:00;;;;;;;78.47;74.35;;;;;;;;;;5038991;28;20393;-61
2022/08/28 14:32:25;;;;;;;92.43;87.68;;;;;;;;;;5038306;28;20065;-61
2022/08/28 14:34:51;;;;;;;93.68;89.00;;;;;;;;;;5037716;28;20029;-61
2022/08/28 14:37:16;;;;;;;90.75;86.25;;;;;;;;;;5039121;28;20366;-62
2022/08/28 14:39:42;;;;;;;97.22;92.40;;;;;;;;;;5036018;28;20371;-62
2022/08/28 14:42:08;;;;;;;100.65;95.35;;;;;;;;;;5038828;28;20037;-62
2022/08/28 14:44:33;;;;;;;85.00;80.80;;;;;;;;;;5034243;28;20037;-62
2022/08/28 14:46:58;;;;;;;106.32;101.10;;;;;;;;;;5035627;28;20033;-61